createdAt,value
2023-04-17T00:01:04.002Z,97166.09
2023-04-17T00:03:33.094Z,97161.75
2023-04-17T00:06:01.457Z,97167.63
2023-04-17T00:08:29.521Z,97163.66
2023-04-17T00:11:06.998Z,97160.56
2023-04-17T00:13:38.692Z,97160.34
2023-04-17T00:16:07.708Z,97153.28
2023-04-17T00:18:36.314Z,97159.63
2023-04-17T00:21:05.060Z,97162.44
2023-04-17T00:23:33.678Z,97153.38
2023-04-17T00:26:02.016Z,97156.19
2023-04-17T00:28:30.101Z,97154.16
2023-04-17T00:31:00.033Z,97157.81
2023-04-17T00:33:28.177Z,97158.31
2023-04-17T00:35:56.540Z,97162.22
2023-04-17T00:38:25.013Z,97163.88
2023-04-17T00:40:53.715Z,97170.34
2023-04-17T00:43:22.038Z,97161.75
2023-04-17T00:45:51.223Z,97160.78
2023-04-17T00:48:24.063Z,97166.00
2023-04-17T00:50:53.322Z,97168.34
2023-04-17T00:53:21.464Z,97162.06
2023-04-17T00:55:52.653Z,97164.03
2023-04-17T00:58:21.207Z,97162.84
2023-04-17T01:00:51.133Z,97162.84
2023-04-17T01:03:22.022Z,97161.28
2023-04-17T01:05:52.413Z,97166.78
2023-04-17T01:08:21.192Z,97160.47
2023-04-17T01:10:49.668Z,97161.91
2023-04-17T01:13:18.018Z,97152.94
2023-04-17T01:15:47.107Z,97161.38
2023-04-17T01:18:15.376Z,97155.59
2023-04-17T01:20:44.756Z,97155.69
2023-04-17T01:23:13.268Z,97158.41
2023-04-17T01:25:42.859Z,97156.41
2023-04-17T01:28:11.170Z,97156.78
2023-04-17T01:30:39.502Z,97160.41
2023-04-17T01:33:09.722Z,97159.56
2023-04-17T01:35:38.053Z,97162.88
2023-04-17T01:38:06.167Z,97159.78
2023-04-17T01:40:34.552Z,97169.13
2023-04-17T01:43:04.229Z,97167.00
2023-04-17T01:45:32.524Z,97162.38
2023-04-17T01:48:01.499Z,97166.72
2023-04-17T01:50:30.269Z,97166.53
2023-04-17T01:52:58.518Z,97167.97
2023-04-17T01:55:27.145Z,97162.09
2023-04-17T01:57:55.761Z,97168.13
2023-04-17T02:00:26.390Z,97159.63
2023-04-17T02:02:55.049Z,97159.09
2023-04-17T02:05:25.040Z,97170.31
2023-04-17T02:07:53.292Z,97167.72
2023-04-17T02:10:21.934Z,97170.09
2023-04-17T02:12:50.460Z,97169.06
2023-04-17T02:15:18.669Z,97174.25
2023-04-17T02:17:48.552Z,97173.63
2023-04-17T02:20:17.044Z,97174.25
2023-04-17T02:22:45.468Z,97172.47
2023-04-17T02:25:13.664Z,97174.00
2023-04-17T02:27:41.839Z,97175.16
2023-04-17T02:30:10.551Z,97167.41
2023-04-17T02:32:38.959Z,97173.06
2023-04-17T02:35:10.937Z,97172.13
2023-04-17T02:37:39.257Z,97170.56
2023-04-17T02:40:11.894Z,97172.97
2023-04-17T02:42:40.181Z,97170.25
2023-04-17T02:45:10.047Z,97170.25
2023-04-17T02:47:38.570Z,97173.06
2023-04-17T02:50:10.258Z,97166.47
2023-04-17T02:52:47.356Z,97162.78
2023-04-17T02:55:16.046Z,97167.97
2023-04-17T02:57:44.580Z,97171.75
2023-04-17T03:00:14.975Z,97173.06
2023-04-17T03:02:43.529Z,97165.53
2023-04-17T03:05:15.026Z,97168.59
2023-04-17T03:07:43.446Z,97173.06
2023-04-17T03:10:12.104Z,97170.72
2023-04-17T03:12:40.679Z,97167.16
2023-04-17T03:15:09.922Z,97175.91
2023-04-17T03:17:38.287Z,97176.28
2023-04-17T03:20:08.340Z,97177.72
2023-04-17T03:22:38.028Z,97172.19
2023-04-17T03:25:08.308Z,97175.22
2023-04-17T03:27:44.750Z,97183.00
2023-04-17T03:30:14.493Z,97177.72
2023-04-17T03:32:46.830Z,97187.06
2023-04-17T03:35:15.277Z,97185.41
2023-04-17T03:37:45.541Z,97188.00
2023-04-17T03:40:14.934Z,97187.06
2023-04-17T03:42:45.355Z,97184.78
2023-04-17T03:45:13.531Z,97197.13
2023-04-17T03:47:42.151Z,97186.03
2023-04-17T03:50:11.200Z,97198.50
2023-04-17T03:52:46.826Z,97194.97
2023-04-17T03:55:16.139Z,97193.06
2023-04-17T03:57:46.173Z,97198.72
2023-04-17T04:00:19.255Z,97202.03
2023-04-17T04:02:50.485Z,97206.19
2023-04-17T04:05:24.411Z,97195.66
2023-04-17T04:07:55.154Z,97201.56
2023-04-17T04:10:30.799Z,97203.84
2023-04-17T04:12:59.302Z,97207.91
2023-04-17T04:15:27.745Z,97202.88
2023-04-17T04:18:00.494Z,97204.75
2023-04-17T04:20:29.026Z,97211.31
2023-04-17T04:23:10.993Z,97211.31
2023-04-17T04:25:41.866Z,97209.47
2023-04-17T04:28:30.568Z,97210.09
2023-04-17T04:31:00.062Z,97215.78
2023-04-17T04:33:33.161Z,97217.25
2023-04-17T04:36:02.082Z,97218.47
2023-04-17T04:38:33.326Z,97222.53
2023-04-17T04:41:11.765Z,97229.75
2023-04-17T04:43:43.291Z,97216.84
2023-04-17T04:46:12.770Z,97227.41
2023-04-17T04:48:46.446Z,97226.59
2023-04-17T04:51:15.253Z,97226.34
2023-04-17T04:53:45.970Z,97233.44
2023-04-17T04:56:16.162Z,97224.31
2023-04-17T04:58:46.418Z,97225.91
2023-04-17T05:01:15.183Z,97231.25
2023-04-17T05:03:47.572Z,97224.78
2023-04-17T05:06:22.430Z,97228.31
2023-04-17T05:08:58.299Z,97228.50
2023-04-17T05:11:27.203Z,97227.53
2023-04-17T05:13:55.631Z,97234.22
2023-04-17T05:16:27.611Z,97234.06
2023-04-17T05:18:56.599Z,97232.88
2023-04-17T05:21:39.975Z,97240.81
2023-04-17T05:24:41.097Z,97240.03
2023-04-17T05:27:09.904Z,97244.59
2023-04-17T05:29:39.039Z,97244.91
2023-04-17T05:32:07.733Z,97244.13
2023-04-17T05:34:54.448Z,97245.91
2023-04-17T05:37:26.744Z,97247.19
2023-04-17T05:40:00.221Z,97245.63
2023-04-17T05:42:29.723Z,97243.03
2023-04-17T05:44:57.902Z,97248.94
2023-04-17T05:47:26.414Z,97254.03
2023-04-17T05:49:58.119Z,97248.94
2023-04-17T05:52:29.248Z,97253.84
2023-04-17T05:54:59.384Z,97254.84
2023-04-17T05:57:29.778Z,97253.41
2023-04-17T05:59:59.152Z,97257.41
2023-04-17T06:02:30.027Z,97256.94
2023-04-17T06:05:28.396Z,97251.22
2023-04-17T06:07:56.866Z,97248.47
2023-04-17T06:10:27.405Z,97253.75
2023-04-17T06:12:55.694Z,97250.63
2023-04-17T06:15:24.309Z,97258.31
2023-04-17T06:17:52.808Z,97255.84
2023-04-17T06:20:21.274Z,97264.06
2023-04-17T06:22:49.750Z,97253.03
2023-04-17T06:25:18.450Z,97261.13
2023-04-17T06:27:49.065Z,97260.97
2023-04-17T06:30:17.713Z,97265.44
2023-04-17T06:32:52.178Z,97264.00
2023-04-17T06:35:22.116Z,97272.25
2023-04-17T06:38:10.601Z,97271.41
2023-04-17T06:40:39.162Z,97271.75
2023-04-17T06:43:10.196Z,97274.84
2023-04-17T06:45:42.488Z,97276.63
2023-04-17T06:48:10.905Z,97278.16
2023-04-17T06:50:40.369Z,97279.78
2023-04-17T06:53:08.580Z,97291.31
2023-04-17T06:55:36.833Z,97284.50
2023-04-17T06:58:05.459Z,97294.59
2023-04-17T07:00:35.434Z,97303.03
2023-04-17T07:03:03.741Z,97298.69
2023-04-17T07:05:32.025Z,97298.03
2023-04-17T07:08:00.375Z,97300.13
2023-04-17T07:10:29.299Z,97299.31
2023-04-17T07:12:57.479Z,97303.16
2023-04-17T07:15:26.820Z,97311.19
2023-04-17T07:17:56.611Z,97308.84
2023-04-17T07:20:25.285Z,97306.00
2023-04-17T07:22:55.676Z,97314.91
2023-04-17T07:25:24.196Z,97311.72
2023-04-17T07:27:58.925Z,97315.38
2023-04-17T07:30:27.718Z,97309.00
2023-04-17T07:32:58.518Z,97315.59
2023-04-17T07:35:28.417Z,97316.69
2023-04-17T07:37:59.368Z,97317.03
2023-04-17T07:40:28.637Z,97316.88
2023-04-17T07:42:57.807Z,97321.72
2023-04-17T07:45:29.980Z,97324.94
2023-04-17T07:47:59.836Z,97328.50
2023-04-17T07:50:31.066Z,97329.69
2023-04-17T07:52:59.839Z,97331.09
2023-04-17T07:55:28.860Z,97334.19
2023-04-17T07:57:58.569Z,97337.41
2023-04-17T08:00:26.954Z,97335.47
2023-04-17T08:02:55.500Z,97333.13
2023-04-17T08:05:26.328Z,97338.22
2023-04-17T08:07:55.462Z,97351.81
2023-04-17T08:10:24.654Z,97355.38
2023-04-17T08:12:52.993Z,97344.03
2023-04-17T08:15:21.761Z,97358.81
2023-04-17T08:17:50.687Z,97355.13
2023-04-17T08:20:20.023Z,97359.97
2023-04-17T08:22:50.544Z,97347.66
2023-04-17T08:25:20.134Z,97346.56
2023-04-17T08:27:48.506Z,97338.91
2023-04-17T08:30:19.264Z,97336.59
2023-04-17T08:32:50.316Z,97336.41
2023-04-17T08:35:18.731Z,97340.75
2023-04-17T08:38:01.936Z,97347.88
2023-04-17T08:40:31.072Z,97357.03
2023-04-17T08:43:03.473Z,97353.31
2023-04-17T08:45:33.909Z,97360.59
2023-04-17T08:48:02.645Z,97364.38
2023-04-17T08:50:31.822Z,97364.34
2023-04-17T08:53:01.789Z,97363.13
2023-04-17T08:55:47.701Z,97366.72
2023-04-17T08:58:18.004Z,97374.88
2023-04-17T09:00:47.735Z,97381.31
2023-04-17T09:03:17.719Z,97391.22
2023-04-17T09:05:46.653Z,97395.00
2023-04-17T09:08:18.110Z,97395.63
2023-04-17T09:10:47.820Z,97400.25
2023-04-17T09:13:18.664Z,97394.16
2023-04-17T09:15:48.966Z,97397.47
2023-04-17T09:18:28.210Z,97396.66
2023-04-17T09:20:57.908Z,97402.78
2023-04-17T09:23:29.869Z,97404.88
2023-04-17T09:26:09.570Z,97402.44
2023-04-17T09:28:40.036Z,97395.50
2023-04-17T09:31:26.351Z,97395.25
2023-04-17T09:33:59.243Z,97394.06
2023-04-17T09:36:28.915Z,97401.47
2023-04-17T09:39:00.579Z,97401.13
2023-04-17T09:41:30.121Z,97403.91
2023-04-17T09:44:05.737Z,97392.78
2023-04-17T09:46:38.551Z,97389.34
2023-04-17T09:49:12.194Z,97390.00
2023-04-17T09:51:41.345Z,97385.28
2023-04-17T09:54:12.832Z,97391.75
2023-04-17T09:56:42.781Z,97402.31
2023-04-17T09:59:11.356Z,97403.53
2023-04-17T10:01:42.661Z,97402.69
2023-04-17T10:04:13.885Z,97408.75
2023-04-17T10:06:42.682Z,97403.00
2023-04-17T10:09:14.327Z,97409.03
2023-04-17T10:11:47.507Z,97403.06
2023-04-17T10:14:22.000Z,97412.56
2023-04-17T10:16:54.804Z,97418.38
2023-04-17T10:19:31.522Z,97416.25
2023-04-17T10:22:32.640Z,97416.13
2023-04-17T10:25:22.701Z,97430.06
2023-04-17T10:27:56.294Z,97425.09
2023-04-17T10:30:26.997Z,97419.31
2023-04-17T10:33:24.915Z,97416.09
2023-04-17T10:35:55.171Z,97424.09
2023-04-17T10:38:34.955Z,97420.44
2023-04-17T10:41:09.760Z,97416.56
2023-04-17T10:43:42.966Z,97424.22
2023-04-17T10:46:14.205Z,97416.59
2023-04-17T10:48:49.838Z,97417.94
2023-04-17T10:51:41.161Z,97418.06
2023-04-17T10:54:14.327Z,97410.72
2023-04-17T10:56:48.856Z,97409.06
2023-04-17T10:59:18.983Z,97413.75
2023-04-17T11:02:05.030Z,97415.91
2023-04-17T11:04:35.185Z,97409.78
2023-04-17T11:07:04.486Z,97411.47
2023-04-17T11:09:33.248Z,97417.34
2023-04-17T11:12:03.496Z,97411.47
2023-04-17T11:14:32.532Z,97407.81
2023-04-17T11:17:03.376Z,97416.34
2023-04-17T11:19:33.953Z,97416.88
2023-04-17T11:22:03.424Z,97424.13
2023-04-17T11:24:33.358Z,97432.63
2023-04-17T11:27:05.888Z,97428.59
2023-04-17T11:29:34.716Z,97431.47
2023-04-17T11:32:04.123Z,97431.81
2023-04-17T11:34:32.450Z,97428.59
2023-04-17T11:37:03.300Z,97429.22
2023-04-17T11:39:33.375Z,97424.44
2023-04-17T11:42:05.598Z,97425.38
2023-04-17T11:44:34.181Z,97430.16
2023-04-17T11:47:04.333Z,97426.09
2023-04-17T11:49:34.160Z,97428.09
2023-04-17T11:52:05.346Z,97433.78
2023-04-17T11:54:38.598Z,97437.50
2023-04-17T11:57:13.339Z,97445.88
2023-04-17T11:59:45.609Z,97447.78
2023-04-17T12:02:15.392Z,97449.00
2023-04-17T12:04:44.705Z,97446.34
2023-04-17T12:07:24.883Z,97450.25
2023-04-17T12:09:58.036Z,97451.53
2023-04-17T12:12:29.807Z,97450.72
2023-04-17T12:14:59.290Z,97448.84
2023-04-17T12:17:27.575Z,97451.22
2023-04-17T12:19:56.288Z,97458.19
2023-04-17T12:22:25.949Z,97453.00
2023-04-17T12:24:54.583Z,97444.88
2023-04-17T12:27:22.997Z,97450.50
2023-04-17T12:29:53.106Z,97445.72
2023-04-17T12:32:22.153Z,97453.22
2023-04-17T12:34:50.652Z,97454.88
2023-04-17T12:37:20.075Z,97455.38
2023-04-17T12:39:48.919Z,97456.19
2023-04-17T12:42:18.347Z,97463.22
2023-04-17T12:44:47.053Z,97465.53
2023-04-17T12:47:16.930Z,97462.81
2023-04-17T12:49:46.500Z,97459.84
2023-04-17T12:52:14.890Z,97457.97
2023-04-17T12:54:43.343Z,97460.34
2023-04-17T12:57:12.085Z,97456.50
2023-04-17T12:59:41.093Z,97447.59
2023-04-17T13:02:10.527Z,97453.50
2023-04-17T13:04:40.973Z,97449.88
2023-04-17T13:07:11.123Z,97452.13
2023-04-17T13:09:39.814Z,97455.38
2023-04-17T13:12:09.377Z,97457.09
2023-04-17T13:14:38.683Z,97451.63
2023-04-17T13:17:07.622Z,97458.25
2023-04-17T13:19:36.902Z,97465.00
2023-04-17T13:22:07.051Z,97463.88
2023-04-17T13:24:37.292Z,97469.25
2023-04-17T13:27:06.088Z,97462.19
2023-04-17T13:29:34.642Z,97465.72
2023-04-17T13:32:04.406Z,97465.56
2023-04-17T13:34:32.850Z,97465.34
2023-04-17T13:37:02.321Z,97463.66
2023-04-17T13:39:32.861Z,97467.75
2023-04-17T13:42:01.608Z,97463.31
2023-04-17T13:44:29.919Z,97455.00
2023-04-17T13:46:58.184Z,97456.00
2023-04-17T13:49:27.367Z,97465.56
2023-04-17T13:51:56.450Z,97459.53
2023-04-17T13:54:24.994Z,97467.41
2023-04-17T13:56:57.591Z,97467.69
2023-04-17T13:59:27.235Z,97467.59
2023-04-17T14:01:56.224Z,97471.53
2023-04-17T14:04:26.173Z,97478.38
2023-04-17T14:06:54.618Z,97471.19
2023-04-17T14:09:23.592Z,97477.19
2023-04-17T14:11:51.976Z,97474.59
2023-04-17T14:14:22.699Z,97472.66
2023-04-17T14:16:52.106Z,97473.03
2023-04-17T14:19:21.351Z,97477.59
2023-04-17T14:21:49.774Z,97470.13
2023-04-17T14:24:18.536Z,97474.69
2023-04-17T14:26:47.182Z,97474.94
2023-04-17T14:29:16.314Z,97475.78
2023-04-17T14:31:46.233Z,97474.28
2023-04-17T14:34:15.012Z,97479.19
2023-04-17T14:36:56.253Z,97485.41
2023-04-17T14:39:28.000Z,97478.38
2023-04-17T14:42:01.341Z,97480.41
2023-04-17T14:44:32.106Z,97478.94
2023-04-17T14:47:03.019Z,97479.47
2023-04-17T14:49:32.117Z,97483.00
2023-04-17T14:52:01.919Z,97477.56
2023-04-17T14:54:30.314Z,97480.63
2023-04-17T14:56:58.968Z,97479.44
2023-04-17T14:59:27.936Z,97482.75
2023-04-17T15:01:57.120Z,97476.47
2023-04-17T15:04:27.024Z,97475.28
2023-04-17T15:06:56.404Z,97477.75
2023-04-17T15:09:24.802Z,97479.03
2023-04-17T15:11:53.676Z,97485.69
2023-04-17T15:14:22.899Z,97482.53
2023-04-17T15:16:51.360Z,97479.56
2023-04-17T15:19:19.907Z,97482.97
2023-04-17T15:22:38.641Z,97481.34
2023-04-17T15:25:10.069Z,97478.50
2023-04-17T15:27:38.151Z,97486.19
2023-04-17T15:30:09.273Z,97487.28
2023-04-17T15:32:37.859Z,97483.47
2023-04-17T15:35:07.055Z,97486.91
2023-04-17T15:37:35.759Z,97481.00
2023-04-17T15:40:04.217Z,97476.94
2023-04-17T15:42:34.074Z,97475.91
2023-04-17T15:45:02.877Z,97478.59
2023-04-17T15:47:32.172Z,97468.69
2023-04-17T15:50:00.969Z,97477.38
2023-04-17T15:52:29.129Z,97481.44
2023-04-17T15:54:57.185Z,97481.63
2023-04-17T15:57:25.456Z,97487.03
2023-04-17T15:59:55.286Z,97479.53
2023-04-17T16:02:24.108Z,97483.22
2023-04-17T16:04:53.427Z,97483.22
2023-04-17T16:07:23.183Z,97475.28
2023-04-17T16:09:51.750Z,97473.44
2023-04-17T16:12:20.012Z,97472.50
2023-04-17T16:14:49.415Z,97485.81
2023-04-17T16:17:20.181Z,97483.41
2023-04-17T16:19:50.478Z,97484.31
2023-04-17T16:22:19.242Z,97488.31
2023-04-17T16:24:47.316Z,97491.63
2023-04-17T16:27:16.168Z,97491.91
2023-04-17T16:29:44.305Z,97498.56
2023-04-17T16:32:14.398Z,97503.75
2023-04-17T16:34:43.800Z,97508.34
2023-04-17T16:37:11.956Z,97509.56
2023-04-17T16:39:40.476Z,97498.66
2023-04-17T16:42:08.819Z,97498.91
2023-04-17T16:44:37.955Z,97498.75
2023-04-17T16:47:13.473Z,97493.56
2023-04-17T16:49:44.213Z,97502.53
2023-04-17T16:52:12.332Z,97512.22
2023-04-17T16:54:40.865Z,97502.91
2023-04-17T16:57:10.424Z,97498.28
2023-04-17T16:59:38.869Z,97493.19
2023-04-17T17:05:40.949Z,97504.19
2023-04-17T17:08:09.480Z,97506.22
2023-04-17T17:10:37.731Z,97505.28
2023-04-17T17:13:06.291Z,97514.06
2023-04-17T17:15:34.881Z,97494.38
2023-04-17T17:18:03.546Z,97502.31
2023-04-17T17:20:32.192Z,97503.72
2023-04-17T17:23:03.217Z,97496.97
2023-04-17T17:25:31.910Z,97508.06
2023-04-17T17:28:00.492Z,97509.53
2023-04-17T17:30:30.027Z,97510.72
2023-04-17T17:32:58.836Z,97506.13
2023-04-17T17:35:27.321Z,97506.31
2023-04-17T17:37:56.024Z,97512.41
2023-04-17T17:40:26.012Z,97518.66
2023-04-17T17:42:54.648Z,97527.13
2023-04-17T17:45:22.881Z,97521.97
2023-04-17T17:47:51.053Z,97525.66
2023-04-17T17:50:20.000Z,97529.38
2023-04-17T17:52:48.209Z,97531.38
2023-04-17T17:55:16.869Z,97531.56
2023-04-17T17:57:49.173Z,97527.13
2023-04-17T18:00:26.812Z,97525.22
2023-04-17T18:02:55.992Z,97526.88
2023-04-17T18:05:24.988Z,97527.06
2023-04-17T18:08:21.678Z,97528.63
2023-04-17T18:10:50.189Z,97527.34
2023-04-17T18:13:19.829Z,97532.88
2023-04-17T18:15:48.329Z,97523.53
2023-04-17T18:18:16.580Z,97534.25
2023-04-17T18:20:44.788Z,97531.38
2023-04-17T18:23:13.133Z,97535.72
2023-04-17T18:25:41.768Z,97533.72
2023-04-17T18:28:10.021Z,97529.47
2023-04-17T18:30:39.570Z,97530.47
2023-04-17T18:33:07.761Z,97539.31
2023-04-17T18:35:35.964Z,97530.84
2023-04-17T18:38:04.901Z,97537.03
2023-04-17T18:40:32.933Z,97541.81
2023-04-17T18:43:01.702Z,97540.81
2023-04-17T18:45:31.102Z,97544.16
2023-04-17T18:48:01.077Z,97540.81
2023-04-17T18:50:29.685Z,97551.16
2023-04-17T18:52:58.081Z,97553.81
2023-04-17T18:55:26.531Z,97548.19
2023-04-17T18:57:54.685Z,97550.03
2023-04-17T19:00:23.169Z,97551.69
2023-04-17T19:02:51.662Z,97549.03
2023-04-17T19:05:46.969Z,97552.34
2023-04-17T19:08:16.672Z,97555.94
2023-04-17T19:10:45.616Z,97555.03
2023-04-17T19:13:14.473Z,97564.63
2023-04-17T19:15:42.616Z,97561.19
2023-04-17T19:18:11.421Z,97556.84
2023-04-17T19:20:40.133Z,97567.44
2023-04-17T19:23:10.307Z,97553.59
2023-04-17T19:25:39.114Z,97547.59
2023-04-17T19:28:07.628Z,97553.34
2023-04-17T19:30:35.681Z,97547.91
2023-04-17T19:33:04.102Z,97546.16
2023-04-17T19:35:32.924Z,97543.75
2023-04-17T19:38:01.914Z,97542.13
2023-04-17T19:40:31.927Z,97549.88
2023-04-17T19:43:01.735Z,97549.31
2023-04-17T19:45:33.714Z,97545.06
2023-04-17T19:48:02.502Z,97550.31
2023-04-17T19:50:31.552Z,97553.66
2023-04-17T19:53:00.807Z,97545.53
2023-04-17T19:55:28.970Z,97540.97
2023-04-17T19:57:59.215Z,97541.56
2023-04-17T20:00:27.606Z,97545.63
2023-04-17T20:02:56.339Z,97558.47
2023-04-17T20:05:24.513Z,97552.09
2023-04-17T20:07:52.992Z,97555.91
2023-04-17T20:10:21.370Z,97550.06
2023-04-17T20:12:50.213Z,97554.31
2023-04-17T20:15:22.067Z,97553.31
2023-04-17T20:17:51.219Z,97555.97
2023-04-17T20:20:20.229Z,97551.44
2023-04-17T20:22:48.711Z,97544.72
2023-04-17T20:25:19.007Z,97554.59
2023-04-17T20:27:47.335Z,97545.75
2023-04-17T20:30:16.162Z,97543.50
2023-04-17T20:32:46.329Z,97548.50
2023-04-17T20:35:15.188Z,97541.13
2023-04-17T20:37:45.927Z,97538.06
2023-04-17T20:40:15.023Z,97537.25
2023-04-17T20:42:44.873Z,97534.66
2023-04-17T20:45:12.876Z,97543.44
2023-04-17T20:47:55.392Z,97541.69
2023-04-17T20:50:27.051Z,97538.44
2023-04-17T20:52:55.616Z,97547.13
2023-04-17T20:55:24.492Z,97541.31
2023-04-17T20:57:52.558Z,97538.91
2023-04-17T21:25:29.749Z,97551.59
2023-04-17T21:28:09.379Z,97554.63
2023-04-17T21:30:38.029Z,97553.13
2023-04-17T21:33:06.278Z,97555.63
2023-04-17T21:35:36.582Z,97551.22
2023-04-17T21:38:04.637Z,97552.97
2023-04-17T21:40:36.701Z,97560.28
2023-04-17T21:43:05.392Z,97553.88
2023-04-17T21:45:35.418Z,97551.75
2023-04-17T21:48:04.940Z,97552.69
2023-04-17T21:50:33.059Z,97549.09
2023-04-17T21:53:01.336Z,97556.47
2023-04-17T21:55:29.707Z,97547.88
2023-04-17T21:57:57.926Z,97555.72
2023-04-17T22:00:26.424Z,97549.63
2023-04-17T22:02:56.483Z,97553.88
2023-04-17T22:05:24.968Z,97556.47
2023-04-17T22:07:55.271Z,97552.13
2023-04-17T22:10:25.171Z,97550.56
2023-04-17T22:12:53.765Z,97549.47
2023-04-17T22:15:22.417Z,97546.78
2023-04-17T22:17:50.747Z,97556.97
2023-04-17T22:20:20.757Z,97555.81
2023-04-17T22:22:48.804Z,97548.81
2023-04-17T22:25:17.184Z,97541.88
2023-04-17T22:27:46.228Z,97536.38
2023-04-17T22:30:14.657Z,97534.69
2023-04-17T22:32:43.570Z,97542.06
2023-04-17T22:35:11.669Z,97538.47
2023-04-17T22:37:41.513Z,97546.06
2023-04-17T22:40:10.676Z,97533.94
2023-04-17T22:42:39.136Z,97537.19
2023-04-17T22:45:08.643Z,97537.94
2023-04-17T22:47:36.955Z,97542.91
2023-04-17T22:50:05.870Z,97537.56
2023-04-17T22:52:34.546Z,97545.88
2023-04-17T22:55:05.087Z,97540.69
2023-04-17T22:57:33.565Z,97544.97
2023-04-17T23:00:01.820Z,97550.03
2023-04-17T23:02:30.436Z,97543.13
2023-04-17T23:04:58.662Z,97545.50
2023-04-17T23:07:27.042Z,97550.03
2023-04-17T23:09:55.640Z,97538.13
2023-04-17T23:12:25.425Z,97544.97
2023-04-17T23:14:53.521Z,97546.63
2023-04-17T23:17:21.614Z,97546.81
2023-04-17T23:19:49.971Z,97537.19
2023-04-17T23:22:18.342Z,97539.97
2023-04-17T23:24:46.445Z,97537.47
2023-04-17T23:27:14.662Z,97531.47
2023-04-17T23:29:44.661Z,97528.22
2023-04-17T23:32:12.867Z,97529.97
2023-04-17T23:34:41.194Z,97537.66
2023-04-17T23:37:09.273Z,97534.22
2023-04-17T23:39:37.235Z,97529.25
2023-04-17T23:42:08.093Z,97527.47
2023-04-17T23:44:36.516Z,97527.69
2023-04-17T23:47:06.425Z,97524.34
2023-04-17T23:49:34.859Z,97526.28
2023-04-17T23:52:03.790Z,97517.69
2023-04-17T23:54:32.070Z,97520.34
2023-04-17T23:57:00.229Z,97527.19
2023-04-17T23:59:28.689Z,97526.38
